Time;durP1;ratioP1;P1;durP2;ratioP2;P2;SDS_P1;SDS_P2;PMS_P1;PMS_P2;Temp;Humidity;BMP_temperature;BMP_pressure;BME280_temperature;BME280_humidity;BME280_pressure;Samples;Min_cycle;Max_cycle;Signal;HPM_P1;HPM_P2
2021/01/22 00:01:25;;;;;;;47.35;26.97;;;;;;;7.78;54.11;100685.19;1759257;81;21152;-79
2021/01/22 00:03:53;;;;;;;40.83;22.62;;;;;;;7.72;54.12;100681.70;1786154;80;21408;-76
2021/01/22 00:06:21;;;;;;;47.00;24.02;;;;;;;7.75;54.08;100682.29;1786069;80;21113;-75
2021/01/22 00:08:48;;;;;;;39.27;22.40;;;;;;;7.75;54.09;100683.63;1786289;80;21165;-77
2021/01/22 00:11:16;;;;;;;49.80;27.10;;;;;;;7.74;54.16;100682.44;1786101;80;21500;-78
2021/01/22 00:13:44;;;;;;;48.20;26.55;;;;;;;7.76;54.16;100683.13;1786105;80;21223;-79
2021/01/22 00:16:13;;;;;;;56.68;29.18;;;;;;;7.78;54.14;100677.19;1786278;80;21360;-77
2021/01/22 00:18:41;;;;;;;45.83;24.27;;;;;;;7.75;54.28;100680.12;1758176;80;21176;-79
2021/01/22 00:21:08;;;;;;;46.20;23.95;;;;;;;7.62;54.49;100673.19;1757977;80;21136;-76
2021/01/22 00:23:37;;;;;;;55.15;29.57;;;;;;;7.56;54.65;100663.56;1786057;80;21192;-76
2021/01/22 00:26:06;;;;;;;53.35;28.67;;;;;;;7.63;54.56;100665.56;1786409;80;21159;-75
2021/01/22 00:28:35;;;;;;;50.30;28.05;;;;;;;7.65;54.55;100669.91;1786198;80;21372;-76
2021/01/22 00:31:02;;;;;;;56.68;31.15;;;;;;;7.69;54.52;100668.67;1786427;80;21694;-78
2021/01/22 00:33:31;;;;;;;49.63;26.50;;;;;;;7.66;54.50;100652.92;1786295;80;21527;-79
2021/01/22 00:35:59;;;;;;;63.87;33.10;;;;;;;7.62;54.56;100669.19;1786431;80;21143;-76
2021/01/22 00:38:26;;;;;;;57.70;32.53;;;;;;;7.55;54.64;100665.38;1786221;80;21681;-79
2021/01/22 00:40:54;;;;;;;40.58;22.80;;;;;;;7.55;54.66;100653.87;1786067;80;22691;-76
2021/01/22 00:43:22;;;;;;;46.20;28.30;;;;;;;7.57;54.59;100658.58;1786541;80;21124;-77
2021/01/22 00:45:50;;;;;;;50.83;30.05;;;;;;;7.54;54.64;100649.05;1786310;80;21517;-77
2021/01/22 00:48:17;;;;;;;49.95;26.73;;;;;;;7.56;54.57;100653.73;1786353;80;21068;-76
2021/01/22 00:50:45;;;;;;;73.47;32.98;;;;;;;7.61;54.48;100652.00;1786173;80;21199;-78
2021/01/22 00:53:13;;;;;;;129.55;53.73;;;;;;;7.68;54.33;100662.98;1786573;80;21364;-76
2021/01/22 00:55:42;;;;;;;107.17;48.23;;;;;;;7.71;54.24;100646.20;1786148;80;21618;-77
2021/01/22 00:58:29;;;;;;;84.35;40.73;;;;;;;8.01;53.73;100647.15;1786668;80;21132;-76
2021/01/22 01:00:58;;;;;;;58.17;28.45;;;;;;;8.36;52.85;100645.31;1785002;80;21183;-77
2021/01/22 01:03:28;;;;;;;48.38;24.98;;;;;;;8.36;52.67;100641.31;1786305;80;21475;-75
2021/01/22 01:05:56;;;;;;;37.35;22.05;;;;;;;8.23;52.79;100643.41;1757911;80;21373;-79
2021/01/22 01:08:24;;;;;;;41.92;22.75;;;;;;;7.97;53.14;100637.23;1786202;80;21407;-78
2021/01/22 01:11:00;;;;;;;35.65;21.93;;;;;;;7.61;54.03;100641.34;1784003;80;21184;-77
2021/01/22 01:13:37;;;;;;;44.83;24.23;;;;;;;7.55;54.24;100638.73;1772676;80;21136;-74
2021/01/22 01:16:12;;;;;;;36.17;21.12;;;;;;;7.58;54.29;100631.77;1768027;80;21532;-78
2021/01/22 01:18:40;;;;;;;33.28;19.02;;;;;;;7.63;54.27;100636.73;1785586;80;22463;-77
2021/01/22 01:21:08;;;;;;;32.93;18.92;;;;;;;7.61;54.30;100636.84;1786093;80;21456;-76
2021/01/22 01:23:36;;;;;;;28.83;18.00;;;;;;;7.54;54.40;100621.05;1786099;80;21638;-74
2021/01/22 01:26:04;;;;;;;30.05;18.95;;;;;;;7.46;54.52;100620.03;1785967;80;21689;-78
2021/01/22 01:28:31;;;;;;;26.87;16.60;;;;;;;7.39;54.65;100610.38;1781434;78;21175;-75
2021/01/22 01:30:59;;;;;;;31.55;17.37;;;;;;;7.36;54.71;100617.33;1790705;79;21476;-79
2021/01/22 01:33:28;;;;;;;32.90;18.45;;;;;;;7.32;54.88;100613.25;1775834;80;21561;-77
2021/01/22 01:36:01;;;;;;;42.35;24.00;;;;;;;7.26;54.95;100611.93;1778611;80;21145;-79
2021/01/22 01:38:29;;;;;;;32.60;19.42;;;;;;;7.25;55.06;100614.74;1766896;80;21173;-76
2021/01/22 01:40:59;;;;;;;34.85;20.30;;;;;;;7.30;55.07;100611.19;1773205;80;21203;-78
2021/01/22 01:43:28;;;;;;;33.48;18.23;;;;;;;7.31;55.02;100610.20;1777171;80;22094;-76
2021/01/22 01:45:56;;;;;;;37.38;20.00;;;;;;;7.30;54.92;100615.18;1775894;80;21459;-78
2021/01/22 01:48:24;;;;;;;30.20;15.90;;;;;;;7.25;54.98;100609.41;1764755;81;21179;-77
2021/01/22 01:50:52;;;;;;;28.70;16.30;;;;;;;7.24;55.08;100599.73;1756253;81;21058;-77
2021/01/22 01:53:19;;;;;;;37.15;20.95;;;;;;;7.24;55.13;100605.06;1761430;81;21649;-79
2021/01/22 01:55:48;;;;;;;39.08;20.40;;;;;;;7.27;55.07;100596.33;1723788;81;21218;-76
2021/01/22 01:58:16;;;;;;;42.98;21.55;;;;;;;7.38;54.87;100593.55;1759802;79;21236;-76
2021/01/22 02:00:43;;;;;;;34.08;19.57;;;;;;;7.49;54.69;100596.59;1750955;81;21194;-78
2021/01/22 02:03:11;;;;;;;36.05;20.02;;;;;;;7.56;54.47;100601.75;1730972;81;21188;-78
2021/01/22 02:05:39;;;;;;;35.85;20.00;;;;;;;7.62;54.34;100595.88;1764260;81;21165;-76
2021/01/22 02:08:08;;;;;;;35.63;20.80;;;;;;;7.68;54.19;100592.34;1764928;81;22175;-78
2021/01/22 02:10:35;;;;;;;36.68;21.07;;;;;;;7.74;54.04;100597.11;1726724;81;21633;-77
2021/01/22 02:13:03;;;;;;;36.25;21.17;;;;;;;7.74;53.97;100598.45;1710956;82;21176;-77
2021/01/22 02:15:30;;;;;;;35.17;18.25;;;;;;;7.67;53.94;100594.13;1755569;81;21224;-75
2021/01/22 02:17:59;;;;;;;34.10;18.50;;;;;;;7.70;53.86;100593.03;1733374;82;21229;-76
2021/01/22 02:20:46;;;;;;;36.13;18.75;;;;;;;7.71;53.75;100592.05;1763312;81;21371;-78
2021/01/22 02:23:14;;;;;;;31.68;18.12;;;;;;;7.75;53.65;100591.63;1760102;81;21134;-81
2021/01/22 02:25:42;;;;;;;37.40;18.60;;;;;;;7.84;53.53;100591.30;1732946;82;21205;-78
2021/01/22 02:28:13;;;;;;;32.13;19.75;;;;;;;7.91;53.37;100583.13;1763321;81;21200;-79
2021/01/22 02:30:46;;;;;;;28.80;16.82;;;;;;;7.99;53.17;100591.25;1762701;81;21192;-77
2021/01/22 02:33:15;;;;;;;30.45;18.12;;;;;;;8.03;52.98;100584.66;1752933;81;21405;-76
2021/01/22 02:35:44;;;;;;;23.77;11.68;;;;;;;8.01;52.92;100584.47;1764720;81;21647;-75
2021/01/22 02:38:12;;;;;;;33.80;18.23;;;;;;;7.98;52.92;100592.73;1732911;82;21517;-79
2021/01/22 02:40:41;;;;;;;33.50;17.60;;;;;;;7.88;52.95;100594.05;1764352;81;21164;-78
2021/01/22 02:43:09;;;;;;;26.60;14.70;;;;;;;7.77;53.15;100588.85;1697519;82;21204;-75
2021/01/22 02:45:37;;;;;;;26.07;15.93;;;;;;;7.69;53.29;100587.35;1723157;81;21823;-77
2021/01/22 02:48:06;;;;;;;33.70;17.95;;;;;;;7.61;53.44;100577.36;1763853;81;21194;-77
2021/01/22 02:50:36;;;;;;;52.83;23.00;;;;;;;7.59;53.43;100581.50;1764527;81;21540;-78
2021/01/22 02:53:04;;;;;;;37.63;19.27;;;;;;;7.62;53.40;100586.54;1765311;81;21189;-77
2021/01/22 02:55:34;;;;;;;34.58;19.20;;;;;;;7.67;53.33;100595.95;1760000;81;21161;-77
2021/01/22 02:58:11;;;;;;;28.15;15.65;;;;;;;7.71;53.22;100580.05;1760326;81;21374;-77
2021/01/22 03:00:46;;;;;;;31.60;19.07;;;;;;;7.72;53.25;100575.06;1756760;81;21188;-77
2021/01/22 03:03:31;;;;;;;33.90;18.17;;;;;;;7.72;53.26;100581.72;1755508;81;21142;-77
2021/01/22 03:05:59;;;;;;;31.10;17.57;;;;;;;7.71;53.21;100584.05;1759637;81;21693;-79
2021/01/22 03:08:28;;;;;;;30.10;17.48;;;;;;;7.62;53.28;100579.87;1727467;81;21165;-77
2021/01/22 03:10:56;;;;;;;24.45;14.93;;;;;;;7.51;53.40;100585.33;1727355;81;22009;-76
2021/01/22 03:13:25;;;;;;;33.58;18.52;;;;;;;7.43;53.61;100581.16;1732770;81;21676;-79
2021/01/22 03:15:54;;;;;;;27.73;17.65;;;;;;;7.41;53.71;100581.80;1755042;81;21229;-77
2021/01/22 03:18:22;;;;;;;30.80;18.65;;;;;;;7.42;53.76;100583.48;1750764;81;21600;-78
2021/01/22 03:20:50;;;;;;;38.30;20.20;;;;;;;7.40;53.82;100584.58;1759933;81;21204;-80
2021/01/22 03:23:20;;;;;;;28.52;16.85;;;;;;;7.42;53.81;100581.30;1732788;82;21226;-78
2021/01/22 03:25:48;;;;;;;32.23;18.45;;;;;;;7.42;53.79;100579.97;1763292;81;21184;-77
2021/01/22 03:28:17;;;;;;;34.78;19.70;;;;;;;7.36;53.85;100581.36;1729118;82;21050;-76
2021/01/22 03:30:45;;;;;;;32.33;19.32;;;;;;;7.32;53.95;100582.11;1759712;81;21185;-78
2021/01/22 03:33:14;;;;;;;38.70;22.32;;;;;;;7.32;54.04;100580.78;1759794;81;21457;-80
2021/01/22 03:35:42;;;;;;;41.35;22.55;;;;;;;7.29;54.08;100577.53;1744827;81;21392;-77
2021/01/22 03:38:09;;;;;;;40.80;23.15;;;;;;;7.33;54.12;100573.63;1732987;82;21188;-75
2021/01/22 03:40:37;;;;;;;35.83;21.70;;;;;;;7.43;54.04;100572.32;1733229;82;21188;-77
2021/01/22 03:43:05;;;;;;;39.95;22.45;;;;;;;7.49;53.90;100577.94;1733307;82;21189;-77
2021/01/22 03:45:32;;;;;;;39.05;23.20;;;;;;;7.56;53.73;100581.77;1733243;82;21172;-80
2021/01/22 03:48:02;;;;;;;35.78;21.23;;;;;;;7.56;53.62;100583.09;1733338;82;21424;-75
2021/01/22 03:50:30;;;;;;;40.85;24.00;;;;;;;7.52;53.64;100584.34;1733390;82;21077;-77
2021/01/22 03:52:58;;;;;;;35.58;21.85;;;;;;;7.50;53.69;100578.81;1733450;82;21648;-76
2021/01/22 03:55:25;;;;;;;39.20;21.80;;;;;;;7.53;53.69;100581.19;1711354;81;21519;-76
2021/01/22 03:57:53;;;;;;;37.70;19.80;;;;;;;7.52;53.59;100580.34;1764142;81;21175;-75
2021/01/22 04:00:23;;;;;;;38.65;22.25;;;;;;;7.46;53.68;100581.39;1761344;79;22658;-74
2021/01/22 04:02:51;;;;;;;38.17;22.42;;;;;;;7.39;53.80;100582.40;1763172;81;21184;-75
2021/01/22 04:05:19;;;;;;;29.52;17.85;;;;;;;7.40;53.82;100572.58;1763579;81;21156;-77
2021/01/22 04:07:47;;;;;;;28.92;16.25;;;;;;;7.46;53.83;100576.91;1763072;81;21171;-76
2021/01/22 04:10:14;;;;;;;35.80;21.23;;;;;;;7.50;53.71;100576.98;1763073;81;21167;-77
2021/01/22 04:12:42;;;;;;;33.73;19.35;;;;;;;7.49;53.71;100579.27;1763193;81;22722;-77
2021/01/22 04:15:11;;;;;;;37.85;18.75;;;;;;;7.51;53.66;100586.66;1763241;81;21195;-78
2021/01/22 04:17:39;;;;;;;33.65;18.70;;;;;;;7.51;53.71;100585.33;1764086;81;21208;-77
2021/01/22 04:20:08;;;;;;;32.67;18.05;;;;;;;7.52;53.73;100576.84;1731792;81;21529;-76
2021/01/22 04:22:36;;;;;;;35.25;18.67;;;;;;;7.57;53.67;100578.11;1763787;80;21163;-77
2021/01/22 04:25:04;;;;;;;33.00;18.30;;;;;;;7.60;53.65;100577.02;1763850;81;22259;-77
2021/01/22 04:27:32;;;;;;;34.25;17.50;;;;;;;7.62;53.61;100570.55;1763592;81;21666;-75
2021/01/22 04:30:00;;;;;;;36.08;17.95;;;;;;;7.68;53.49;100566.52;1762998;81;21112;-77
2021/01/22 04:32:29;;;;;;;32.28;16.57;;;;;;;7.71;53.44;100567.55;1764077;80;21092;-75
2021/01/22 04:34:56;;;;;;;34.30;19.02;;;;;;;7.77;53.33;100568.36;1764014;81;21100;-76
2021/01/22 04:37:24;;;;;;;31.77;17.55;;;;;;;7.81;53.24;100572.91;1764056;81;21359;-76
2021/01/22 04:39:51;;;;;;;36.73;20.55;;;;;;;7.82;53.21;100573.28;1764186;81;21144;-78
2021/01/22 04:42:21;;;;;;;46.63;23.67;;;;;;;7.84;53.16;100568.64;1763833;80;21180;-76
2021/01/22 04:44:49;;;;;;;35.03;19.52;;;;;;;7.89;53.12;100571.23;1763726;81;21185;-75
2021/01/22 04:47:17;;;;;;;33.30;17.23;;;;;;;7.93;52.97;100574.47;1764109;81;21096;-75
2021/01/22 04:49:46;;;;;;;31.75;16.40;;;;;;;7.93;52.91;100572.30;1764382;81;21364;-76
2021/01/22 04:52:14;;;;;;;29.75;16.50;;;;;;;7.93;52.87;100568.30;1732617;81;21131;-80
2021/01/22 04:54:42;;;;;;;33.45;19.20;;;;;;;7.91;52.91;100569.78;1764219;81;21168;-77
2021/01/22 04:57:09;;;;;;;37.40;21.02;;;;;;;7.85;53.02;100567.65;1732768;81;21194;-76
2021/01/22 04:59:49;;;;;;;33.38;19.75;;;;;;;7.85;53.05;100570.31;1757260;79;21175;-77
2021/01/22 05:02:18;;;;;;;33.38;19.17;;;;;;;7.86;53.04;100565.36;1763600;81;21230;-77
2021/01/22 05:04:46;;;;;;;27.40;15.20;;;;;;;7.89;53.01;100567.73;1764245;81;21618;-76
2021/01/22 05:07:14;;;;;;;36.40;18.98;;;;;;;7.88;52.94;100570.05;1763814;81;21721;-78
2021/01/22 05:09:42;;;;;;;38.65;21.48;;;;;;;7.84;53.01;100567.30;1741360;81;21214;-78
2021/01/22 05:12:11;;;;;;;39.70;21.85;;;;;;;7.78;53.13;100557.20;1732538;82;21358;-77
2021/01/22 05:14:39;;;;;;;33.20;19.62;;;;;;;7.78;53.20;100562.03;1744723;79;21346;-77
2021/01/22 05:17:11;;;;;;;26.02;15.85;;;;;;;7.81;53.20;100558.23;1737598;81;21184;-77
2021/01/22 05:19:43;;;;;;;34.83;19.48;;;;;;;7.81;53.17;100559.57;1729661;82;21183;-76
2021/01/22 05:22:15;;;;;;;32.90;18.37;;;;;;;7.70;53.31;100555.70;1745077;81;21103;-77
2021/01/22 05:24:43;;;;;;;33.85;17.82;;;;;;;7.66;53.41;100549.80;1757284;81;21138;-75
2021/01/22 05:27:12;;;;;;;33.42;19.98;;;;;;;7.70;53.40;100554.37;1732302;82;22163;-76
2021/01/22 05:29:42;;;;;;;29.75;17.50;;;;;;;7.77;53.35;100548.86;1732435;82;21149;-79
2021/01/22 05:32:30;;;;;;;31.90;19.55;;;;;;;7.85;53.26;100553.82;1733090;82;21010;-76
2021/01/22 05:34:58;;;;;;;34.05;18.65;;;;;;;7.91;53.16;100557.78;1749370;81;21603;-76
2021/01/22 05:37:26;;;;;;;38.42;19.98;;;;;;;7.94;53.11;100552.16;1759106;81;21101;-76
2021/01/22 05:40:13;;;;;;;32.30;19.10;;;;;;;8.00;52.93;100552.95;1732899;82;21370;-77
2021/01/22 05:42:52;;;;;;;36.95;19.65;;;;;;;8.04;52.83;100556.16;1759598;81;21461;-76
2021/01/22 05:45:42;;;;;;;31.50;18.25;;;;;;;8.02;52.78;100553.64;1766676;81;21129;-77
2021/01/22 05:48:27;;;;;;;31.23;18.65;;;;;;;8.07;52.73;100555.39;1733223;82;21123;-77
2021/01/22 05:50:57;;;;;;;29.63;18.12;;;;;;;8.11;52.65;100544.80;1756714;81;21394;-76
2021/01/22 05:53:29;;;;;;;33.30;17.90;;;;;;;8.12;52.57;100562.48;1761112;81;21370;-74
2021/01/22 05:56:10;;;;;;;29.10;17.45;;;;;;;8.13;52.48;100545.52;1763357;81;21229;-76
2021/01/22 05:58:41;;;;;;;39.92;18.37;;;;;;;8.17;52.39;100553.22;1762690;81;21115;-77
2021/01/22 06:01:19;;;;;;;28.92;16.85;;;;;;;8.16;52.27;100537.70;1762813;81;21124;-76
2021/01/22 06:03:51;;;;;;;29.25;15.10;;;;;;;8.17;52.25;100550.05;1745172;79;21107;-76
2021/01/22 06:06:19;;;;;;;38.42;19.98;;;;;;;8.19;52.23;100551.27;1747153;81;22246;-75
2021/01/22 06:08:57;;;;;;;36.42;19.00;;;;;;;8.18;52.24;100540.25;1738042;81;21140;-77
2021/01/22 06:11:30;;;;;;;34.23;17.95;;;;;;;8.17;52.19;100538.05;1750516;81;21116;-79
2021/01/22 06:14:05;;;;;;;31.33;16.73;;;;;;;8.19;52.19;100540.59;1743827;81;21087;-77
2021/01/22 06:16:34;;;;;;;32.83;17.02;;;;;;;8.23;52.11;100538.00;1741344;81;21167;-76
2021/01/22 06:19:05;;;;;;;37.05;18.07;;;;;;;8.25;52.04;100539.53;1717290;81;21239;-76
2021/01/22 06:21:53;;;;;;;37.70;19.10;;;;;;;8.25;52.00;100537.36;1736793;81;21131;-75
2021/01/22 06:24:23;;;;;;;35.68;18.57;;;;;;;8.23;52.02;100536.67;1745137;79;21132;-75
2021/01/22 06:26:50;;;;;;;29.95;16.52;;;;;;;8.16;52.18;100540.87;1757333;79;21100;-75
2021/01/22 06:29:18;;;;;;;35.10;19.37;;;;;;;8.09;52.31;100552.11;1751997;80;21105;-76
2021/01/22 06:31:45;;;;;;;25.62;15.72;;;;;;;7.89;52.50;100531.23;1735836;79;21579;-75
2021/01/22 06:34:13;;;;;;;32.25;17.95;;;;;;;7.72;52.83;100541.73;1742629;79;21128;-77
2021/01/22 06:36:44;;;;;;;28.20;16.30;;;;;;;7.58;53.18;100540.30;1743287;79;21131;-76
2021/01/22 06:39:15;;;;;;;27.67;14.13;;;;;;;7.59;53.35;100538.02;1746897;79;21113;-77
2021/01/22 06:41:41;;;;;;;36.98;19.23;;;;;;;7.54;53.45;100537.09;1750608;81;21928;-78
2021/01/22 06:46:36;;;;;;;37.03;19.82;;;;;;;7.41;53.88;100536.49;1823028;77;22814;-76
2021/01/22 06:49:05;;;;;;;36.83;19.92;;;;;;;7.45;53.91;100538.37;1816577;77;21172;-78
2021/01/22 06:51:35;;;;;;;34.23;19.95;;;;;;;7.56;53.82;100544.94;1830025;77;22129;-76
2021/01/22 06:54:20;;;;;;;32.67;18.23;;;;;;;7.65;53.67;100533.95;1789916;78;21184;-78
2021/01/22 06:57:06;;;;;;;35.00;19.00;;;;;;;7.74;53.54;100538.45;1835452;77;21201;-77
2021/01/22 06:59:42;;;;;;;40.73;22.93;;;;;;;7.78;53.43;100544.70;1814845;78;21161;-76
2021/01/22 07:02:47;;;;;;;47.15;24.85;;;;;;;7.76;53.40;100546.65;1808789;78;21121;-74
2021/01/22 07:05:35;;;;;;;35.92;21.05;;;;;;;7.77;53.42;100547.52;1781992;78;21161;-76
2021/01/22 07:08:05;;;;;;;67.60;28.02;;;;;;;7.79;53.33;100546.88;1813620;77;21122;-77
2021/01/22 07:11:03;;;;;;;66.35;31.52;;;;;;;7.82;53.32;100535.95;1835063;77;21097;-77
2021/01/22 07:13:37;;;;;;;84.22;35.68;;;;;;;7.98;53.01;100542.05;1807280;78;21227;-76
2021/01/22 07:16:08;;;;;;;95.10;37.28;;;;;;;7.98;53.01;100542.05;1810147;77;21653;-76
2021/01/22 07:18:54;;;;;;;72.15;33.95;;;;;;;7.93;52.96;100542.47;1792862;79;21360;-74
2021/01/22 07:21:29;;;;;;;43.85;23.12;;;;;;;7.92;52.94;100551.46;1812755;77;21125;-76
2021/01/22 07:24:04;;;;;;;35.58;18.82;;;;;;;7.84;52.98;100548.64;1806235;77;21081;-78
2021/01/22 07:26:39;;;;;;;34.70;18.23;;;;;;;7.82;53.02;100542.12;1814156;77;24250;-78
2021/01/22 07:29:27;;;;;;;33.05;16.55;;;;;;;7.78;53.12;100547.87;1830972;77;21551;-75
2021/01/22 07:31:58;;;;;;;32.93;16.10;;;;;;;7.79;53.11;100536.21;1847222;77;21194;-75
2021/01/22 07:34:45;;;;;;;52.98;22.82;;;;;;;7.88;52.99;100535.37;1835700;77;21132;-77
2021/01/22 07:37:16;;;;;;;35.83;18.50;;;;;;;7.96;52.82;100532.87;1792352;77;21096;-77
2021/01/22 07:39:45;;;;;;;40.73;19.85;;;;;;;8.04;52.61;100540.15;1826703;77;21090;-77
2021/01/22 07:42:22;;;;;;;28.55;15.58;;;;;;;8.07;52.44;100544.72;1834331;77;21198;-76
2021/01/22 07:44:51;;;;;;;;;;;;;;;8.04;52.41;100538.35;1801446;78;21189;-75
2021/01/22 07:47:34;;;;;;;145.80;52.53;;;;;;;8.08;52.36;100533.55;1826198;77;20505;-76
2021/01/22 07:50:12;;;;;;;105.95;40.45;;;;;;;8.13;52.28;100538.01;1795147;78;21124;-77
2021/01/22 07:52:45;;;;;;;84.13;33.65;;;;;;;8.19;52.23;100529.43;1808060;78;21128;-74
2021/01/22 07:55:22;;;;;;;90.15;37.90;;;;;;;8.25;52.15;100532.86;1803304;78;21130;-77
2021/01/22 07:58:03;;;;;;;75.62;32.95;;;;;;;8.28;52.04;100535.75;1807212;78;21876;-77
2021/01/22 08:00:38;;;;;;;58.90;27.82;;;;;;;8.29;51.98;100536.09;1816135;78;21871;-80
2021/01/22 08:03:11;;;;;;;45.70;22.90;;;;;;;8.29;51.98;100533.42;1814207;78;21145;-75
2021/01/22 08:05:41;;;;;;;44.27;22.10;;;;;;;8.26;51.97;100536.36;1827792;76;21205;-74
2021/01/22 08:08:23;;;;;;;36.77;18.77;;;;;;;8.23;52.06;100542.00;1797807;78;21112;-76
2021/01/22 08:10:52;;;;;;;31.17;18.25;;;;;;;8.21;52.10;100540.79;1818924;77;21342;-77
2021/01/22 08:13:21;;;;;;;40.58;20.55;;;;;;;8.20;52.17;100533.78;1810898;77;21127;-74
2021/01/22 08:16:03;;;;;;;39.27;18.62;;;;;;;8.24;52.12;100530.34;1829861;77;21132;-75
2021/01/22 08:18:32;;;;;;;44.70;20.37;;;;;;;8.27;52.08;100530.06;1833941;77;21405;-77
2021/01/22 08:21:01;;;;;;;56.85;22.87;;;;;;;8.29;51.95;100530.75;1810098;78;21572;-76
2021/01/22 08:23:32;;;;;;;66.97;27.60;;;;;;;8.27;51.87;100540.74;1814782;78;21360;-76
2021/01/22 08:26:00;;;;;;;121.35;42.65;;;;;;;8.27;51.86;100548.75;1813176;78;21111;-77
2021/01/22 08:28:31;;;;;;;87.37;34.15;;;;;;;8.31;51.86;100544.32;1811101;78;21642;-76
2021/01/22 08:30:58;;;;;;;69.42;29.72;;;;;;;8.35;51.82;100539.02;1832502;77;21855;-75
2021/01/22 08:33:27;;;;;;;100.30;38.45;;;;;;;8.38;51.76;100546.78;1819344;77;21600;-76
2021/01/22 08:35:55;;;;;;;99.45;37.98;;;;;;;8.38;51.69;100551.28;1814659;77;22217;-76
2021/01/22 08:38:24;;;;;;;87.97;35.85;;;;;;;8.32;51.75;100544.66;1806749;78;21670;-75
2021/01/22 08:40:59;;;;;;;70.60;27.98;;;;;;;8.33;51.80;100540.16;1825498;78;21144;-75
2021/01/22 08:43:27;;;;;;;59.53;28.95;;;;;;;8.37;51.78;100550.45;1828464;78;21104;-75
2021/01/22 08:46:11;;;;;;;52.85;26.00;;;;;;;8.40;51.72;100545.30;1817052;78;21486;-76
2021/01/22 08:48:39;;;;;;;56.58;26.57;;;;;;;8.39;51.70;100542.28;1817207;77;21353;-77
2021/01/22 08:51:08;;;;;;;55.28;26.52;;;;;;;8.29;51.85;100544.94;1828252;77;21129;-77
2021/01/22 08:53:53;;;;;;;59.23;27.55;;;;;;;8.21;51.95;100538.62;1804344;78;21574;-76
2021/01/22 08:56:23;;;;;;;49.60;23.57;;;;;;;8.10;52.11;100528.45;1803710;78;21117;-77
2021/01/22 08:59:03;;;;;;;57.13;26.95;;;;;;;8.02;52.31;100530.97;1826547;77;21079;-76
2021/01/22 09:01:58;;;;;;;46.73;21.75;;;;;;;8.00;52.35;100535.61;1831657;77;21315;-77
2021/01/22 09:04:35;;;;;;;58.75;27.00;;;;;;;7.95;52.45;100536.52;1823062;77;21138;-74
2021/01/22 09:07:05;;;;;;;117.47;52.15;;;;;;;7.79;52.73;100530.88;1807416;78;21595;-75
2021/01/22 09:09:51;;;;;;;117.55;51.02;;;;;;;7.75;52.92;100528.14;1804462;78;21101;-74
2021/01/22 09:12:22;;;;;;;105.83;45.75;;;;;;;7.77;52.96;100523.03;1791559;78;21125;-76
2021/01/22 09:15:06;;;;;;;83.72;42.05;;;;;;;7.75;53.05;100514.80;1799186;77;21366;-77
2021/01/22 09:17:43;;;;;;;86.55;41.33;;;;;;;7.77;53.16;100511.03;1818559;77;21144;-75
2021/01/22 09:20:24;;;;;;;88.82;40.95;;;;;;;7.90;53.11;100516.07;1815738;77;21400;-76
2021/01/22 09:23:04;;;;;;;62.15;32.08;;;;;;;8.02;52.98;100500.29;1816160;78;21129;-74
2021/01/22 09:25:32;;;;;;;41.45;22.77;;;;;;;8.14;52.83;100503.67;1819155;77;21097;-76
2021/01/22 09:28:00;;;;;;;39.75;22.52;;;;;;;8.21;52.65;100495.92;1801435;78;21361;-75
2021/01/22 09:30:29;;;;;;;37.40;20.43;;;;;;;8.30;52.47;100508.41;1804852;78;21571;-76
2021/01/22 09:32:58;;;;;;;35.52;19.27;;;;;;;8.37;52.31;100513.58;1830190;77;21109;-75
2021/01/22 09:35:29;;;;;;;28.52;17.77;;;;;;;8.40;52.19;100491.92;1827999;77;21654;-76
2021/01/22 09:37:58;;;;;;;30.43;18.57;;;;;;;8.45;52.07;100501.70;1833914;77;21109;-76
2021/01/22 09:40:26;;;;;;;32.93;18.70;;;;;;;8.48;51.97;100504.06;1810618;77;21215;-73
2021/01/22 09:42:56;;;;;;;35.75;21.97;;;;;;;8.50;51.88;100494.09;1824395;77;21141;-77
2021/01/22 09:45:25;;;;;;;37.53;20.40;;;;;;;8.50;51.85;100490.09;1803109;78;21274;-76
2021/01/22 09:47:55;;;;;;;29.10;17.23;;;;;;;8.56;51.77;100485.50;1799969;78;21113;-76
2021/01/22 09:50:24;;;;;;;31.62;19.07;;;;;;;8.57;51.71;100481.00;1819992;77;21092;-76
2021/01/22 09:52:52;;;;;;;35.95;19.35;;;;;;;8.48;51.80;100477.37;1811438;78;22621;-76
2021/01/22 09:55:19;;;;;;;39.27;21.80;;;;;;;8.41;51.94;100478.95;1809759;78;21141;-77
2021/01/22 09:57:48;;;;;;;34.58;19.92;;;;;;;8.41;52.10;100485.62;1807506;78;21145;-76
2021/01/22 10:00:17;;;;;;;34.92;19.45;;;;;;;8.45;52.11;100479.48;1824088;77;21101;-76
2021/01/22 10:02:45;;;;;;;31.00;18.32;;;;;;;8.47;52.07;100474.36;1830738;77;21627;-77
2021/01/22 10:05:14;;;;;;;43.38;20.77;;;;;;;8.48;52.06;100482.70;1814121;77;21540;-76
2021/01/22 10:07:42;;;;;;;46.80;22.82;;;;;;;8.49;52.05;100475.04;1832797;77;21141;-77
2021/01/22 10:10:26;;;;;;;44.42;21.90;;;;;;;8.54;51.99;100471.47;1816177;77;21600;-76
2021/01/22 10:12:58;;;;;;;36.83;20.02;;;;;;;8.59;51.92;100475.04;1784438;78;21127;-76
2021/01/22 10:15:27;;;;;;;40.10;21.48;;;;;;;8.61;51.81;100471.22;1815746;78;21245;-76
2021/01/22 10:17:55;;;;;;;47.30;25.12;;;;;;;8.67;51.81;100470.28;1805968;78;22009;-78
2021/01/22 10:20:24;;;;;;;92.72;38.70;;;;;;;8.69;51.71;100471.84;1804555;78;21580;-75
2021/01/22 10:23:01;;;;;;;82.45;36.10;;;;;;;8.70;51.58;100462.00;1824957;77;21181;-73
2021/01/22 10:25:31;;;;;;;52.25;25.20;;;;;;;8.73;51.57;100468.39;1823765;77;21179;-75
2021/01/22 10:27:58;;;;;;;35.65;19.00;;;;;;;8.76;51.50;100460.91;1799910;78;21728;-78
2021/01/22 10:30:26;;;;;;;29.98;16.60;;;;;;;8.80;51.37;100455.62;1801732;78;22620;-76
2021/01/22 10:32:55;;;;;;;37.00;20.65;;;;;;;8.76;51.39;100452.05;1808937;78;21218;-77
2021/01/22 10:35:23;;;;;;;31.90;19.30;;;;;;;8.70;51.50;100451.31;1805877;78;21149;-76
2021/01/22 10:37:52;;;;;;;29.77;17.32;;;;;;;8.69;51.62;100447.81;1809054;78;21743;-75
2021/01/22 10:40:21;;;;;;;35.60;20.60;;;;;;;8.70;51.66;100448.64;1800473;78;21507;-77
2021/01/22 10:42:49;;;;;;;37.25;21.40;;;;;;;8.68;51.70;100442.62;1798797;78;21240;-76
2021/01/22 10:45:18;;;;;;;36.95;20.27;;;;;;;8.75;51.68;100439.70;1802630;78;21723;-76
2021/01/22 10:47:46;;;;;;;39.35;21.10;;;;;;;8.81;51.51;100439.97;1822967;77;21177;-75
2021/01/22 10:50:16;;;;;;;52.67;25.57;;;;;;;8.85;51.37;100435.98;1779550;79;21196;-76
2021/01/22 10:52:44;;;;;;;49.88;26.27;;;;;;;8.88;51.30;100421.50;1812384;78;21152;-76
2021/01/22 10:55:13;;;;;;;35.98;20.37;;;;;;;8.95;51.13;100422.61;1812774;78;21362;-74
2021/01/22 10:57:42;;;;;;;37.50;20.85;;;;;;;9.00;51.06;100418.99;1808076;78;21675;-76
2021/01/22 11:00:11;;;;;;;33.35;19.23;;;;;;;9.05;50.94;100416.71;1798569;78;21206;-76
2021/01/22 11:02:39;;;;;;;31.30;18.92;;;;;;;9.14;50.80;100422.49;1821964;77;21565;-77
2021/01/22 11:05:09;;;;;;;33.10;19.37;;;;;;;9.10;50.73;100419.77;1833667;77;21101;-76
2021/01/22 11:07:37;;;;;;;32.65;19.55;;;;;;;8.98;50.96;100420.95;1836266;77;21364;-75
2021/01/22 11:10:06;;;;;;;38.17;20.40;;;;;;;8.98;50.92;100425.46;1831762;77;21121;-76
2021/01/22 11:12:34;;;;;;;37.98;21.10;;;;;;;8.95;50.99;100415.06;1828094;77;21121;-75
2021/01/22 11:15:06;;;;;;;31.68;19.50;;;;;;;8.99;50.93;100418.62;1824173;78;21069;-75
2021/01/22 11:17:34;;;;;;;39.92;24.30;;;;;;;8.97;50.90;100411.27;1813751;78;21100;-74
2021/01/22 11:20:03;;;;;;;43.60;27.22;;;;;;;8.99;50.89;100402.59;1829058;78;21376;-75
2021/01/22 11:22:32;;;;;;;48.87;30.25;;;;;;;8.99;50.91;100401.75;1820843;77;21137;-76
2021/01/22 11:25:00;;;;;;;49.08;27.60;;;;;;;9.00;50.93;100400.80;1801817;78;21221;-76
2021/01/22 11:27:29;;;;;;;37.33;22.65;;;;;;;9.01;50.95;100400.63;1795241;78;21211;-75
2021/01/22 11:29:57;;;;;;;37.98;22.67;;;;;;;9.06;50.92;100406.86;1822097;77;21112;-75
2021/01/22 11:32:25;;;;;;;37.05;20.30;;;;;;;9.09;50.87;100402.06;1809639;78;21924;-78
2021/01/22 11:34:54;;;;;;;34.03;20.32;;;;;;;9.13;50.81;100402.61;1812034;78;21191;-76
2021/01/22 11:37:22;;;;;;;41.53;22.00;;;;;;;9.17;50.73;100397.78;1809235;78;21188;-78